Accueil
METAR-TAF:

METAR-TAF

Aéroports :

Odate-Noshiro, Japon

latitude: 40-11N, longitude: 140-12E, altitude: 84 m

Observation

Le bulletin a été fait il y a 54 minutes, à 04:00 UTC
Vent 14 kt de ouest/sud-ouest, variant entre sud/sud-ouest et ouest
Température 11°C
Humidité 76%
Pression 1017 hPa
Visibilité 10 km ou plus
Quelques nuages à une hauteur de 2000 ft
Nuages épars à une hauteur de 3000 ft
Nuages fragmentés à une hauteur de 4000 ft

METAR: RJSR 030400Z 24014KT 200V280 9999 FEW020 SCT030 BKN040 11/07 Q1017

Heure: 13:54 (04:54 UTC)


TAF: absent

Observations et prévisions météorologiques de plus de 4000 aéroports (messages METAR et TAF).

Les stations disponibles sont représentées par des disques jaunes et rouges sur la carte.

Passer la souris dessus pour voir le nom de la station.

Cliquer dessus pour voir les observations et prévisions météorologiques.

Pour changer de carte: cliquez sur les boutons verts avec une croix noire pour zoomer, sur le bouton vert avec un tiret pour effectuer un zoom arrière, ou sur les flèches vertes pour les cartes adjacentes.


METAR-TAF: